sensor_id;sensor_type;location;lat;lon;timestamp;P1;durP1;ratioP1;P2;durP2;ratioP2
65996;SDS011;52765;52.258;21.052;2023-11-21T00:02:22;24.98;;;13.65;;
65996;SDS011;52765;52.258;21.052;2023-11-21T00:04:48;22.80;;;13.23;;
65996;SDS011;52765;52.258;21.052;2023-11-21T00:07:14;19.13;;;12.73;;
65996;SDS011;52765;52.258;21.052;2023-11-21T00:09:40;22.73;;;12.68;;
65996;SDS011;52765;52.258;21.052;2023-11-21T00:12:06;23.63;;;13.27;;
65996;SDS011;52765;52.258;21.052;2023-11-21T00:14:38;24.92;;;13.68;;
65996;SDS011;52765;52.258;21.052;2023-11-21T00:17:04;24.80;;;14.73;;
65996;SDS011;52765;52.258;21.052;2023-11-21T00:19:30;25.38;;;13.77;;
65996;SDS011;52765;52.258;21.052;2023-11-21T00:21:58;22.00;;;13.50;;
65996;SDS011;52765;52.258;21.052;2023-11-21T00:24:24;23.38;;;13.95;;
65996;SDS011;52765;52.258;21.052;2023-11-21T00:26:51;20.98;;;13.45;;
65996;SDS011;52765;52.258;21.052;2023-11-21T00:29:16;26.75;;;15.05;;
65996;SDS011;52765;52.258;21.052;2023-11-21T00:31:52;24.02;;;13.85;;
65996;SDS011;52765;52.258;21.052;2023-11-21T00:34:17;25.02;;;14.27;;
65996;SDS011;52765;52.258;21.052;2023-11-21T00:36:43;24.23;;;14.85;;
65996;SDS011;52765;52.258;21.052;2023-11-21T00:39:09;25.20;;;14.75;;
65996;SDS011;52765;52.258;21.052;2023-11-21T00:41:37;24.25;;;14.63;;
65996;SDS011;52765;52.258;21.052;2023-11-21T00:44:08;25.83;;;15.07;;
65996;SDS011;52765;52.258;21.052;2023-11-21T00:46:34;22.27;;;14.52;;
65996;SDS011;52765;52.258;21.052;2023-11-21T00:48:59;25.23;;;15.35;;
65996;SDS011;52765;52.258;21.052;2023-11-21T00:51:25;23.73;;;14.80;;
65996;SDS011;52765;52.258;21.052;2023-11-21T00:53:50;24.27;;;15.30;;
65996;SDS011;52765;52.258;21.052;2023-11-21T00:56:18;25.13;;;15.63;;
65996;SDS011;52765;52.258;21.052;2023-11-21T00:58:44;27.08;;;16.42;;
65996;SDS011;52765;52.258;21.052;2023-11-21T01:01:11;26.25;;;16.10;;
65996;SDS011;52765;52.258;21.052;2023-11-21T01:03:37;25.95;;;15.88;;
65996;SDS011;52765;52.258;21.052;2023-11-21T01:06:03;26.70;;;16.25;;
65996;SDS011;52765;52.258;21.052;2023-11-21T01:08:32;24.75;;;16.02;;
65996;SDS011;52765;52.258;21.052;2023-11-21T01:10:58;25.75;;;15.93;;
65996;SDS011;52765;52.258;21.052;2023-11-21T01:13:26;24.48;;;15.95;;
65996;SDS011;52765;52.258;21.052;2023-11-21T01:15:56;28.50;;;16.27;;
65996;SDS011;52765;52.258;21.052;2023-11-21T01:18:26;24.52;;;15.32;;
65996;SDS011;52765;52.258;21.052;2023-11-21T01:20:55;25.30;;;16.02;;
65996;SDS011;52765;52.258;21.052;2023-11-21T01:23:21;25.67;;;15.70;;
65996;SDS011;52765;52.258;21.052;2023-11-21T01:25:47;24.13;;;15.48;;
65996;SDS011;52765;52.258;21.052;2023-11-21T01:28:13;26.77;;;15.23;;
65996;SDS011;52765;52.258;21.052;2023-11-21T01:30:39;24.10;;;14.48;;
65996;SDS011;52765;52.258;21.052;2023-11-21T01:33:04;24.75;;;14.82;;
65996;SDS011;52765;52.258;21.052;2023-11-21T01:35:30;23.77;;;14.80;;
65996;SDS011;52765;52.258;21.052;2023-11-21T01:37:55;25.45;;;15.52;;
65996;SDS011;52765;52.258;21.052;2023-11-21T01:40:21;23.30;;;15.23;;
65996;SDS011;52765;52.258;21.052;2023-11-21T01:42:46;24.23;;;14.95;;
65996;SDS011;52765;52.258;21.052;2023-11-21T01:45:13;24.33;;;14.70;;
65996;SDS011;52765;52.258;21.052;2023-11-21T01:47:41;24.02;;;14.85;;
65996;SDS011;52765;52.258;21.052;2023-11-21T01:50:09;23.58;;;15.52;;
65996;SDS011;52765;52.258;21.052;2023-11-21T01:52:41;22.75;;;14.85;;
65996;SDS011;52765;52.258;21.052;2023-11-21T01:55:09;23.10;;;14.35;;
65996;SDS011;52765;52.258;21.052;2023-11-21T01:57:37;24.20;;;14.15;;
65996;SDS011;52765;52.258;21.052;2023-11-21T02:00:06;21.92;;;14.73;;
65996;SDS011;52765;52.258;21.052;2023-11-21T02:02:47;21.90;;;13.50;;
65996;SDS011;52765;52.258;21.052;2023-11-21T02:05:19;23.00;;;13.68;;
65996;SDS011;52765;52.258;21.052;2023-11-21T02:07:46;21.35;;;13.15;;
65996;SDS011;52765;52.258;21.052;2023-11-21T02:10:17;21.40;;;13.68;;
65996;SDS011;52765;52.258;21.052;2023-11-21T02:12:47;21.02;;;13.68;;
65996;SDS011;52765;52.258;21.052;2023-11-21T02:15:15;20.55;;;13.65;;
65996;SDS011;52765;52.258;21.052;2023-11-21T02:17:45;21.88;;;13.82;;
65996;SDS011;52765;52.258;21.052;2023-11-21T02:20:16;19.70;;;14.02;;
65996;SDS011;52765;52.258;21.052;2023-11-21T02:22:51;20.83;;;13.80;;
65996;SDS011;52765;52.258;21.052;2023-11-21T02:25:26;22.58;;;13.90;;
65996;SDS011;52765;52.258;21.052;2023-11-21T02:27:54;23.83;;;14.75;;
65996;SDS011;52765;52.258;21.052;2023-11-21T02:30:26;22.42;;;14.13;;
65996;SDS011;52765;52.258;21.052;2023-11-21T02:32:56;21.13;;;13.23;;
65996;SDS011;52765;52.258;21.052;2023-11-21T02:35:22;22.40;;;13.80;;
65996;SDS011;52765;52.258;21.052;2023-11-21T02:37:48;23.40;;;14.35;;
65996;SDS011;52765;52.258;21.052;2023-11-21T02:40:15;27.75;;;15.07;;
65996;SDS011;52765;52.258;21.052;2023-11-21T02:42:45;22.40;;;14.48;;
65996;SDS011;52765;52.258;21.052;2023-11-21T02:45:16;24.67;;;15.07;;
65996;SDS011;52765;52.258;21.052;2023-11-21T02:47:43;24.45;;;14.27;;
65996;SDS011;52765;52.258;21.052;2023-11-21T02:50:11;25.40;;;14.90;;
65996;SDS011;52765;52.258;21.052;2023-11-21T02:52:38;26.77;;;15.73;;
65996;SDS011;52765;52.258;21.052;2023-11-21T02:55:05;25.77;;;15.38;;
65996;SDS011;52765;52.258;21.052;2023-11-21T02:57:32;24.40;;;15.48;;
65996;SDS011;52765;52.258;21.052;2023-11-21T02:59:58;23.30;;;15.57;;
65996;SDS011;52765;52.258;21.052;2023-11-21T03:02:25;24.67;;;16.95;;
65996;SDS011;52765;52.258;21.052;2023-11-21T03:04:51;26.17;;;17.23;;
65996;SDS011;52765;52.258;21.052;2023-11-21T03:07:16;28.55;;;17.80;;
65996;SDS011;52765;52.258;21.052;2023-11-21T03:09:44;26.60;;;17.63;;
65996;SDS011;52765;52.258;21.052;2023-11-21T03:12:10;27.15;;;16.58;;
65996;SDS011;52765;52.258;21.052;2023-11-21T03:14:39;27.05;;;16.67;;
65996;SDS011;52765;52.258;21.052;2023-11-21T03:17:05;27.40;;;17.35;;
65996;SDS011;52765;52.258;21.052;2023-11-21T03:19:31;23.52;;;15.88;;
65996;SDS011;52765;52.258;21.052;2023-11-21T03:21:57;24.00;;;15.93;;
65996;SDS011;52765;52.258;21.052;2023-11-21T03:24:23;25.52;;;14.88;;
65996;SDS011;52765;52.258;21.052;2023-11-21T03:26:50;25.63;;;16.25;;
65996;SDS011;52765;52.258;21.052;2023-11-21T03:29:19;27.88;;;17.02;;
65996;SDS011;52765;52.258;21.052;2023-11-21T03:31:44;26.75;;;16.38;;
65996;SDS011;52765;52.258;21.052;2023-11-21T03:34:14;27.50;;;17.27;;
65996;SDS011;52765;52.258;21.052;2023-11-21T03:36:41;28.42;;;17.33;;
65996;SDS011;52765;52.258;21.052;2023-11-21T03:39:07;28.77;;;18.45;;
65996;SDS011;52765;52.258;21.052;2023-11-21T03:41:32;27.02;;;17.15;;
65996;SDS011;52765;52.258;21.052;2023-11-21T03:43:59;28.83;;;17.70;;
65996;SDS011;52765;52.258;21.052;2023-11-21T03:46:24;30.80;;;18.58;;
65996;SDS011;52765;52.258;21.052;2023-11-21T03:48:50;33.72;;;18.98;;
65996;SDS011;52765;52.258;21.052;2023-11-21T03:51:16;26.73;;;17.58;;
65996;SDS011;52765;52.258;21.052;2023-11-21T03:53:42;26.15;;;17.80;;
65996;SDS011;52765;52.258;21.052;2023-11-21T03:56:07;25.88;;;16.95;;
65996;SDS011;52765;52.258;21.052;2023-11-21T03:58:33;26.45;;;16.75;;
65996;SDS011;52765;52.258;21.052;2023-11-21T04:00:59;26.25;;;17.05;;
65996;SDS011;52765;52.258;21.052;2023-11-21T04:03:24;27.75;;;17.77;;
65996;SDS011;52765;52.258;21.052;2023-11-21T04:05:50;26.92;;;16.85;;
65996;SDS011;52765;52.258;21.052;2023-11-21T04:08:16;26.17;;;17.40;;
65996;SDS011;52765;52.258;21.052;2023-11-21T04:10:41;21.73;;;15.98;;
65996;SDS011;52765;52.258;21.052;2023-11-21T04:13:07;27.55;;;15.85;;
65996;SDS011;52765;52.258;21.052;2023-11-21T04:15:32;22.38;;;14.32;;
65996;SDS011;52765;52.258;21.052;2023-11-21T04:18:01;19.73;;;13.07;;
65996;SDS011;52765;52.258;21.052;2023-11-21T04:20:29;21.00;;;14.52;;
65996;SDS011;52765;52.258;21.052;2023-11-21T04:22:55;23.98;;;14.57;;
65996;SDS011;52765;52.258;21.052;2023-11-21T04:25:20;19.75;;;13.60;;
65996;SDS011;52765;52.258;21.052;2023-11-21T04:27:48;22.90;;;14.70;;
65996;SDS011;52765;52.258;21.052;2023-11-21T04:30:14;19.92;;;13.10;;
65996;SDS011;52765;52.258;21.052;2023-11-21T04:32:40;19.17;;;13.52;;
65996;SDS011;52765;52.258;21.052;2023-11-21T04:35:07;20.50;;;14.63;;
65996;SDS011;52765;52.258;21.052;2023-11-21T04:37:36;22.52;;;13.60;;
65996;SDS011;52765;52.258;21.052;2023-11-21T04:40:03;19.52;;;13.85;;
65996;SDS011;52765;52.258;21.052;2023-11-21T04:42:33;26.08;;;14.32;;
65996;SDS011;52765;52.258;21.052;2023-11-21T04:45:02;21.02;;;13.35;;
65996;SDS011;52765;52.258;21.052;2023-11-21T04:47:40;20.75;;;13.93;;
65996;SDS011;52765;52.258;21.052;2023-11-21T04:50:08;20.65;;;13.15;;
65996;SDS011;52765;52.258;21.052;2023-11-21T04:52:34;19.40;;;13.20;;
65996;SDS011;52765;52.258;21.052;2023-11-21T04:55:00;18.60;;;13.05;;
65996;SDS011;52765;52.258;21.052;2023-11-21T04:57:27;21.58;;;13.45;;
65996;SDS011;52765;52.258;21.052;2023-11-21T04:59:53;21.88;;;13.23;;
65996;SDS011;52765;52.258;21.052;2023-11-21T05:02:19;18.50;;;12.82;;
65996;SDS011;52765;52.258;21.052;2023-11-21T05:04:46;19.33;;;12.55;;
65996;SDS011;52765;52.258;21.052;2023-11-21T05:07:12;18.83;;;12.20;;
65996;SDS011;52765;52.258;21.052;2023-11-21T05:09:41;17.20;;;12.05;;
65996;SDS011;52765;52.258;21.052;2023-11-21T05:12:09;20.48;;;12.57;;
65996;SDS011;52765;52.258;21.052;2023-11-21T05:14:35;19.98;;;11.85;;
65996;SDS011;52765;52.258;21.052;2023-11-21T05:17:01;22.75;;;12.27;;
65996;SDS011;52765;52.258;21.052;2023-11-21T05:19:26;17.83;;;11.75;;
65996;SDS011;52765;52.258;21.052;2023-11-21T05:21:52;21.20;;;12.45;;
65996;SDS011;52765;52.258;21.052;2023-11-21T05:24:17;18.95;;;12.68;;
65996;SDS011;52765;52.258;21.052;2023-11-21T05:26:43;22.10;;;12.55;;
65996;SDS011;52765;52.258;21.052;2023-11-21T05:29:08;18.15;;;12.40;;
65996;SDS011;52765;52.258;21.052;2023-11-21T05:31:35;20.15;;;12.82;;
65996;SDS011;52765;52.258;21.052;2023-11-21T05:34:03;22.85;;;14.02;;
65996;SDS011;52765;52.258;21.052;2023-11-21T05:36:31;20.83;;;12.43;;
65996;SDS011;52765;52.258;21.052;2023-11-21T05:38:56;18.60;;;12.30;;
65996;SDS011;52765;52.258;21.052;2023-11-21T05:41:22;19.42;;;11.75;;
65996;SDS011;52765;52.258;21.052;2023-11-21T05:43:48;18.70;;;11.70;;
65996;SDS011;52765;52.258;21.052;2023-11-21T05:46:14;19.10;;;11.23;;
65996;SDS011;52765;52.258;21.052;2023-11-21T05:48:39;16.55;;;10.57;;
65996;SDS011;52765;52.258;21.052;2023-11-21T05:51:08;16.17;;;10.45;;
65996;SDS011;52765;52.258;21.052;2023-11-21T05:53:33;16.75;;;10.55;;
65996;SDS011;52765;52.258;21.052;2023-11-21T05:55:59;16.50;;;10.30;;
65996;SDS011;52765;52.258;21.052;2023-11-21T05:58:29;16.15;;;10.25;;
65996;SDS011;52765;52.258;21.052;2023-11-21T06:00:57;14.85;;;9.77;;
65996;SDS011;52765;52.258;21.052;2023-11-21T06:03:26;15.80;;;9.60;;
65996;SDS011;52765;52.258;21.052;2023-11-21T06:05:53;16.88;;;9.77;;
65996;SDS011;52765;52.258;21.052;2023-11-21T06:08:19;15.57;;;9.77;;
65996;SDS011;52765;52.258;21.052;2023-11-21T06:10:47;17.80;;;9.32;;
65996;SDS011;52765;52.258;21.052;2023-11-21T06:13:15;17.38;;;9.60;;
65996;SDS011;52765;52.258;21.052;2023-11-21T06:15:45;17.90;;;10.20;;
65996;SDS011;52765;52.258;21.052;2023-11-21T06:18:11;17.08;;;10.82;;
65996;SDS011;52765;52.258;21.052;2023-11-21T06:20:39;16.35;;;11.02;;
65996;SDS011;52765;52.258;21.052;2023-11-21T06:23:05;16.83;;;10.10;;
65996;SDS011;52765;52.258;21.052;2023-11-21T06:25:34;18.90;;;10.80;;
65996;SDS011;52765;52.258;21.052;2023-11-21T06:28:01;18.38;;;11.23;;
65996;SDS011;52765;52.258;21.052;2023-11-21T06:30:27;16.92;;;10.90;;
65996;SDS011;52765;52.258;21.052;2023-11-21T06:32:54;16.80;;;11.52;;
65996;SDS011;52765;52.258;21.052;2023-11-21T06:35:23;17.77;;;10.93;;
65996;SDS011;52765;52.258;21.052;2023-11-21T06:37:48;16.92;;;10.50;;
65996;SDS011;52765;52.258;21.052;2023-11-21T06:40:14;17.48;;;11.88;;
65996;SDS011;52765;52.258;21.052;2023-11-21T06:42:40;21.33;;;12.13;;
65996;SDS011;52765;52.258;21.052;2023-11-21T06:45:09;21.45;;;13.50;;
65996;SDS011;52765;52.258;21.052;2023-11-21T06:47:35;16.50;;;11.35;;
65996;SDS011;52765;52.258;21.052;2023-11-21T06:50:07;18.70;;;11.70;;
65996;SDS011;52765;52.258;21.052;2023-11-21T06:52:33;18.73;;;12.13;;
65996;SDS011;52765;52.258;21.052;2023-11-21T06:54:59;21.70;;;11.55;;
65996;SDS011;52765;52.258;21.052;2023-11-21T06:57:24;22.15;;;13.35;;
65996;SDS011;52765;52.258;21.052;2023-11-21T06:59:50;20.80;;;11.85;;
65996;SDS011;52765;52.258;21.052;2023-11-21T07:02:16;21.60;;;12.90;;
65996;SDS011;52765;52.258;21.052;2023-11-21T07:04:46;20.20;;;12.00;;
65996;SDS011;52765;52.258;21.052;2023-11-21T07:07:12;22.17;;;12.88;;
65996;SDS011;52765;52.258;21.052;2023-11-21T07:09:38;17.48;;;11.98;;
65996;SDS011;52765;52.258;21.052;2023-11-21T07:12:03;20.25;;;11.85;;
65996;SDS011;52765;52.258;21.052;2023-11-21T07:14:32;20.67;;;12.55;;
65996;SDS011;52765;52.258;21.052;2023-11-21T07:17:00;18.13;;;11.55;;
65996;SDS011;52765;52.258;21.052;2023-11-21T07:19:26;22.48;;;12.18;;
65996;SDS011;52765;52.258;21.052;2023-11-21T07:21:51;19.20;;;11.98;;
65996;SDS011;52765;52.258;21.052;2023-11-21T07:24:17;20.33;;;12.15;;
65996;SDS011;52765;52.258;21.052;2023-11-21T07:26:44;17.08;;;10.80;;
65996;SDS011;52765;52.258;21.052;2023-11-21T07:29:09;20.02;;;12.10;;
65996;SDS011;52765;52.258;21.052;2023-11-21T07:31:36;21.63;;;12.35;;
65996;SDS011;52765;52.258;21.052;2023-11-21T07:34:03;42.38;;;21.77;;
65996;SDS011;52765;52.258;21.052;2023-11-21T07:36:28;24.50;;;12.68;;
65996;SDS011;52765;52.258;21.052;2023-11-21T07:38:54;21.88;;;11.80;;
65996;SDS011;52765;52.258;21.052;2023-11-21T07:41:20;19.52;;;12.32;;
65996;SDS011;52765;52.258;21.052;2023-11-21T07:43:45;19.20;;;11.60;;
65996;SDS011;52765;52.258;21.052;2023-11-21T07:46:11;19.45;;;12.32;;
65996;SDS011;52765;52.258;21.052;2023-11-21T07:48:38;18.38;;;12.05;;
65996;SDS011;52765;52.258;21.052;2023-11-21T07:51:04;19.60;;;11.85;;
65996;SDS011;52765;52.258;21.052;2023-11-21T07:53:30;20.33;;;11.75;;
65996;SDS011;52765;52.258;21.052;2023-11-21T07:55:56;30.40;;;17.40;;
65996;SDS011;52765;52.258;21.052;2023-11-21T07:58:22;21.83;;;13.02;;
65996;SDS011;52765;52.258;21.052;2023-11-21T08:00:49;15.80;;;11.40;;
65996;SDS011;52765;52.258;21.052;2023-11-21T08:03:15;20.85;;;11.77;;
65996;SDS011;52765;52.258;21.052;2023-11-21T08:05:41;17.98;;;12.02;;
65996;SDS011;52765;52.258;21.052;2023-11-21T08:08:07;21.13;;;12.75;;
65996;SDS011;52765;52.258;21.052;2023-11-21T08:10:33;21.20;;;13.50;;
65996;SDS011;52765;52.258;21.052;2023-11-21T08:12:59;18.95;;;13.35;;
65996;SDS011;52765;52.258;21.052;2023-11-21T08:15:28;21.00;;;12.23;;
65996;SDS011;52765;52.258;21.052;2023-11-21T08:17:54;19.25;;;11.73;;
65996;SDS011;52765;52.258;21.052;2023-11-21T08:20:20;20.63;;;12.23;;
65996;SDS011;52765;52.258;21.052;2023-11-21T08:22:50;20.15;;;12.70;;
65996;SDS011;52765;52.258;21.052;2023-11-21T08:25:18;18.15;;;12.13;;
65996;SDS011;52765;52.258;21.052;2023-11-21T08:27:45;19.13;;;13.05;;
65996;SDS011;52765;52.258;21.052;2023-11-21T08:30:11;19.88;;;12.48;;
65996;SDS011;52765;52.258;21.052;2023-11-21T08:32:39;18.42;;;11.52;;
65996;SDS011;52765;52.258;21.052;2023-11-21T08:35:08;22.85;;;13.20;;
65996;SDS011;52765;52.258;21.052;2023-11-21T08:37:34;20.27;;;12.45;;
65996;SDS011;52765;52.258;21.052;2023-11-21T08:40:02;24.30;;;15.35;;
65996;SDS011;52765;52.258;21.052;2023-11-21T08:42:34;35.65;;;17.90;;
65996;SDS011;52765;52.258;21.052;2023-11-21T08:45:00;38.53;;;19.35;;
65996;SDS011;52765;52.258;21.052;2023-11-21T08:47:26;40.83;;;20.50;;
65996;SDS011;52765;52.258;21.052;2023-11-21T08:49:52;31.98;;;17.90;;
65996;SDS011;52765;52.258;21.052;2023-11-21T08:52:21;31.92;;;16.85;;
65996;SDS011;52765;52.258;21.052;2023-11-21T08:54:49;29.15;;;17.20;;
65996;SDS011;52765;52.258;21.052;2023-11-21T08:57:23;25.38;;;15.77;;
65996;SDS011;52765;52.258;21.052;2023-11-21T08:59:50;24.10;;;14.95;;
65996;SDS011;52765;52.258;21.052;2023-11-21T09:02:21;24.13;;;14.45;;
65996;SDS011;52765;52.258;21.052;2023-11-21T09:04:48;21.95;;;14.35;;
65996;SDS011;52765;52.258;21.052;2023-11-21T09:07:14;21.60;;;13.93;;
65996;SDS011;52765;52.258;21.052;2023-11-21T09:09:40;22.35;;;14.18;;
65996;SDS011;52765;52.258;21.052;2023-11-21T09:12:06;24.00;;;14.25;;
65996;SDS011;52765;52.258;21.052;2023-11-21T09:14:31;25.70;;;14.80;;
65996;SDS011;52765;52.258;21.052;2023-11-21T09:17:03;24.08;;;14.55;;
65996;SDS011;52765;52.258;21.052;2023-11-21T09:19:40;27.05;;;16.38;;
65996;SDS011;52765;52.258;21.052;2023-11-21T09:22:06;32.55;;;17.02;;
65996;SDS011;52765;52.258;21.052;2023-11-21T09:24:32;33.30;;;18.00;;
65996;SDS011;52765;52.258;21.052;2023-11-21T09:26:58;32.45;;;18.25;;
65996;SDS011;52765;52.258;21.052;2023-11-21T09:29:25;38.33;;;19.33;;
65996;SDS011;52765;52.258;21.052;2023-11-21T09:31:54;42.42;;;20.30;;
65996;SDS011;52765;52.258;21.052;2023-11-21T09:34:24;33.40;;;19.13;;
65996;SDS011;52765;52.258;21.052;2023-11-21T09:36:50;31.92;;;18.85;;
65996;SDS011;52765;52.258;21.052;2023-11-21T09:39:16;30.23;;;16.95;;
65996;SDS011;52765;52.258;21.052;2023-11-21T09:41:43;28.73;;;17.75;;
65996;SDS011;52765;52.258;21.052;2023-11-21T09:44:17;32.75;;;16.88;;
65996;SDS011;52765;52.258;21.052;2023-11-21T09:46:48;27.38;;;16.92;;
65996;SDS011;52765;52.258;21.052;2023-11-21T09:49:14;28.65;;;17.20;;
65996;SDS011;52765;52.258;21.052;2023-11-21T09:51:44;25.52;;;15.63;;
65996;SDS011;52765;52.258;21.052;2023-11-21T09:54:11;23.42;;;15.18;;
65996;SDS011;52765;52.258;21.052;2023-11-21T09:56:42;25.80;;;14.80;;
65996;SDS011;52765;52.258;21.052;2023-11-21T09:59:08;22.92;;;14.85;;
65996;SDS011;52765;52.258;21.052;2023-11-21T10:01:38;23.95;;;15.85;;
65996;SDS011;52765;52.258;21.052;2023-11-21T10:04:06;23.48;;;15.13;;
65996;SDS011;52765;52.258;21.052;2023-11-21T10:06:38;24.50;;;14.82;;
65996;SDS011;52765;52.258;21.052;2023-11-21T10:09:08;25.98;;;16.40;;
65996;SDS011;52765;52.258;21.052;2023-11-21T10:11:43;26.70;;;15.77;;
65996;SDS011;52765;52.258;21.052;2023-11-21T10:14:12;26.42;;;16.58;;
65996;SDS011;52765;52.258;21.052;2023-11-21T10:16:40;30.63;;;16.83;;
65996;SDS011;52765;52.258;21.052;2023-11-21T10:19:09;29.90;;;17.33;;
65996;SDS011;52765;52.258;21.052;2023-11-21T10:21:37;28.23;;;17.08;;
65996;SDS011;52765;52.258;21.052;2023-11-21T10:24:04;27.42;;;17.38;;
65996;SDS011;52765;52.258;21.052;2023-11-21T10:26:32;29.08;;;17.25;;
65996;SDS011;52765;52.258;21.052;2023-11-21T10:28:59;27.75;;;16.55;;
65996;SDS011;52765;52.258;21.052;2023-11-21T10:31:31;31.15;;;17.95;;
65996;SDS011;52765;52.258;21.052;2023-11-21T10:34:19;28.40;;;17.08;;
65996;SDS011;52765;52.258;21.052;2023-11-21T10:36:45;26.75;;;16.42;;
65996;SDS011;52765;52.258;21.052;2023-11-21T10:39:14;31.58;;;19.15;;
65996;SDS011;52765;52.258;21.052;2023-11-21T10:41:46;27.35;;;17.65;;
65996;SDS011;52765;52.258;21.052;2023-11-21T10:44:21;28.35;;;17.15;;
65996;SDS011;52765;52.258;21.052;2023-11-21T10:46:49;24.70;;;15.10;;
65996;SDS011;52765;52.258;21.052;2023-11-21T10:49:24;26.52;;;16.10;;
65996;SDS011;52765;52.258;21.052;2023-11-21T10:51:50;24.20;;;15.15;;
65996;SDS011;52765;52.258;21.052;2023-11-21T10:54:21;28.45;;;15.52;;
65996;SDS011;52765;52.258;21.052;2023-11-21T10:56:48;25.65;;;15.35;;
65996;SDS011;52765;52.258;21.052;2023-11-21T10:59:23;26.20;;;15.70;;
65996;SDS011;52765;52.258;21.052;2023-11-21T11:01:51;25.65;;;16.50;;
65996;SDS011;52765;52.258;21.052;2023-11-21T11:04:18;29.58;;;18.38;;
65996;SDS011;52765;52.258;21.052;2023-11-21T11:06:45;28.05;;;18.17;;
65996;SDS011;52765;52.258;21.052;2023-11-21T11:09:19;29.58;;;18.38;;
65996;SDS011;52765;52.258;21.052;2023-11-21T11:11:46;31.02;;;18.17;;
65996;SDS011;52765;52.258;21.052;2023-11-21T11:14:12;29.42;;;18.27;;
65996;SDS011;52765;52.258;21.052;2023-11-21T11:16:39;29.25;;;17.70;;
65996;SDS011;52765;52.258;21.052;2023-11-21T11:19:09;29.27;;;17.73;;
65996;SDS011;52765;52.258;21.052;2023-11-21T11:26:51;30.55;;;17.80;;
65996;SDS011;52765;52.258;21.052;2023-11-21T11:32:33;30.90;;;18.02;;
65996;SDS011;52765;52.258;21.052;2023-11-21T11:37:44;25.48;;;15.55;;
65996;SDS011;52765;52.258;21.052;2023-11-21T11:40:11;30.73;;;16.88;;
65996;SDS011;52765;52.258;21.052;2023-11-21T11:42:37;28.48;;;17.17;;
65996;SDS011;52765;52.258;21.052;2023-11-21T11:45:02;28.23;;;16.58;;
65996;SDS011;52765;52.258;21.052;2023-11-21T11:47:48;28.92;;;16.65;;
65996;SDS011;52765;52.258;21.052;2023-11-21T11:50:13;31.80;;;19.13;;
65996;SDS011;52765;52.258;21.052;2023-11-21T11:52:42;30.63;;;16.92;;
65996;SDS011;52765;52.258;21.052;2023-11-21T11:55:18;29.70;;;18.02;;
65996;SDS011;52765;52.258;21.052;2023-11-21T11:57:52;32.20;;;16.35;;
65996;SDS011;52765;52.258;21.052;2023-11-21T12:02:52;30.88;;;16.85;;
65996;SDS011;52765;52.258;21.052;2023-11-21T12:05:24;28.05;;;15.77;;
65996;SDS011;52765;52.258;21.052;2023-11-21T12:07:55;27.42;;;16.90;;
65996;SDS011;52765;52.258;21.052;2023-11-21T12:10:28;28.85;;;15.52;;
65996;SDS011;52765;52.258;21.052;2023-11-21T12:12:59;28.75;;;15.68;;
65996;SDS011;52765;52.258;21.052;2023-11-21T12:15:32;35.63;;;17.85;;
65996;SDS011;52765;52.258;21.052;2023-11-21T12:17:58;28.65;;;16.55;;
65996;SDS011;52765;52.258;21.052;2023-11-21T12:20:27;28.60;;;17.77;;
65996;SDS011;52765;52.258;21.052;2023-11-21T12:23:10;31.25;;;17.13;;
65996;SDS011;52765;52.258;21.052;2023-11-21T12:25:36;33.45;;;17.23;;
65996;SDS011;52765;52.258;21.052;2023-11-21T12:28:02;27.40;;;17.10;;
65996;SDS011;52765;52.258;21.052;2023-11-21T12:30:29;30.75;;;17.67;;
65996;SDS011;52765;52.258;21.052;2023-11-21T12:32:57;32.35;;;18.77;;
65996;SDS011;52765;52.258;21.052;2023-11-21T12:35:27;31.13;;;18.02;;
65996;SDS011;52765;52.258;21.052;2023-11-21T12:37:55;33.35;;;18.90;;
65996;SDS011;52765;52.258;21.052;2023-11-21T12:40:23;27.25;;;16.25;;
65996;SDS011;52765;52.258;21.052;2023-11-21T12:42:54;29.00;;;17.98;;
65996;SDS011;52765;52.258;21.052;2023-11-21T12:45:21;32.15;;;18.48;;
65996;SDS011;52765;52.258;21.052;2023-11-21T12:47:51;32.45;;;18.65;;
65996;SDS011;52765;52.258;21.052;2023-11-21T12:50:20;32.22;;;19.33;;
65996;SDS011;52765;52.258;21.052;2023-11-21T12:52:54;32.45;;;17.50;;
65996;SDS011;52765;52.258;21.052;2023-11-21T12:55:32;30.65;;;17.70;;
65996;SDS011;52765;52.258;21.052;2023-11-21T12:58:02;26.67;;;17.15;;
65996;SDS011;52765;52.258;21.052;2023-11-21T13:00:44;31.38;;;17.60;;
65996;SDS011;52765;52.258;21.052;2023-11-21T13:03:24;27.73;;;16.75;;
65996;SDS011;52765;52.258;21.052;2023-11-21T13:09:19;31.70;;;17.92;;
65996;SDS011;52765;52.258;21.052;2023-11-21T13:12:13;29.80;;;16.90;;
65996;SDS011;52765;52.258;21.052;2023-11-21T13:14:58;28.00;;;16.65;;
65996;SDS011;52765;52.258;21.052;2023-11-21T13:17:35;28.52;;;17.02;;
65996;SDS011;52765;52.258;21.052;2023-11-21T13:20:14;28.13;;;18.02;;
65996;SDS011;52765;52.258;21.052;2023-11-21T13:23:00;27.58;;;16.40;;
65996;SDS011;52765;52.258;21.052;2023-11-21T13:25:42;27.50;;;16.65;;
65996;SDS011;52765;52.258;21.052;2023-11-21T13:28:19;28.05;;;17.63;;
65996;SDS011;52765;52.258;21.052;2023-11-21T13:30:57;27.75;;;16.00;;
65996;SDS011;52765;52.258;21.052;2023-11-21T13:33:35;25.27;;;16.75;;
65996;SDS011;52765;52.258;21.052;2023-11-21T13:36:05;28.42;;;16.60;;
65996;SDS011;52765;52.258;21.052;2023-11-21T13:38:34;27.17;;;16.65;;
65996;SDS011;52765;52.258;21.052;2023-11-21T13:41:10;31.02;;;17.75;;
65996;SDS011;52765;52.258;21.052;2023-11-21T13:43:38;23.83;;;16.05;;
65996;SDS011;52765;52.258;21.052;2023-11-21T13:46:04;26.15;;;15.85;;
65996;SDS011;52765;52.258;21.052;2023-11-21T13:48:40;28.00;;;16.85;;
65996;SDS011;52765;52.258;21.052;2023-11-21T13:51:08;27.67;;;16.85;;
65996;SDS011;52765;52.258;21.052;2023-11-21T13:53:46;30.63;;;17.33;;
65996;SDS011;52765;52.258;21.052;2023-11-21T13:56:14;31.98;;;17.05;;
65996;SDS011;52765;52.258;21.052;2023-11-21T13:58:48;30.35;;;17.63;;
65996;SDS011;52765;52.258;21.052;2023-11-21T14:01:18;32.08;;;18.60;;
65996;SDS011;52765;52.258;21.052;2023-11-21T14:03:58;29.50;;;17.77;;
65996;SDS011;52765;52.258;21.052;2023-11-21T14:06:46;30.20;;;17.50;;
65996;SDS011;52765;52.258;21.052;2023-11-21T14:09:23;38.47;;;21.05;;
65996;SDS011;52765;52.258;21.052;2023-11-21T14:11:58;28.48;;;16.60;;
65996;SDS011;52765;52.258;21.052;2023-11-21T14:14:25;29.63;;;16.40;;
65996;SDS011;52765;52.258;21.052;2023-11-21T14:16:53;30.42;;;17.80;;
65996;SDS011;52765;52.258;21.052;2023-11-21T14:19:18;30.27;;;17.27;;
65996;SDS011;52765;52.258;21.052;2023-11-21T14:21:52;31.88;;;18.02;;
65996;SDS011;52765;52.258;21.052;2023-11-21T14:24:19;33.97;;;19.40;;
65996;SDS011;52765;52.258;21.052;2023-11-21T14:26:48;31.50;;;17.17;;
65996;SDS011;52765;52.258;21.052;2023-11-21T14:29:17;26.52;;;16.23;;
65996;SDS011;52765;52.258;21.052;2023-11-21T14:31:57;45.50;;;27.03;;
65996;SDS011;52765;52.258;21.052;2023-11-21T14:34:23;33.80;;;18.85;;